Time;durP1;ratioP1;P1;durP2;ratioP2;P2;SDS_P1;SDS_P2;PMS_P1;PMS_P2;Temp;Humidity;BMP_temperature;BMP_pressure;BME280_temperature;BME280_humidity;BME280_pressure;Samples;Min_cycle;Max_cycle;Signal;HPM_P1;HPM_P2
2023/02/24 00:02:49;;;;;;;;;;;;;;;24.34;32.12;95150.00;5035163;28;1394;-72
2023/02/24 00:05:14;;;;;;;;;;;;;;;24.35;32.04;95154.31;5022947;28;1362;-72
2023/02/24 00:07:39;;;;;;;;;;;;;;;24.37;32.06;95146.88;5031602;28;1211;-71
2023/02/24 00:10:05;;;;;;;;;;;;;;;24.32;32.51;95138.69;5034764;28;1906;-72
2023/02/24 00:12:31;;;;;;;;;;;;;;;24.39;32.37;95150.13;5031772;28;1266;-72
2023/02/24 00:14:56;;;;;;;;;;;;;;;24.39;32.18;95148.28;5032347;28;1486;-72
2023/02/24 00:17:26;;;;;;;;;;;;;;;24.38;32.30;95143.94;5025736;28;1373;-71
2023/02/24 00:19:51;;;;;;;;;;;;;;;24.39;32.60;95144.75;5033309;28;1187;-71
2023/02/24 00:22:17;;;;;;;;;;;;;;;24.40;32.27;95141.88;5030811;28;1220;-71
2023/02/24 00:24:42;;;;;;;;;;;;;;;24.40;32.86;95144.56;5034714;28;1255;-72
2023/02/24 00:27:10;;;;;;;;;;;;;;;24.39;32.72;95145.59;5028923;28;1195;-71
2023/02/24 00:29:36;;;;;;;;;;;;;;;24.40;32.64;95147.22;5029259;28;1968;-72
2023/02/24 00:32:05;;;;;;;;;;;;;;;24.44;32.66;95139.56;5033058;28;1296;-71
2023/02/24 00:34:32;;;;;;;;;;;;;;;24.37;33.03;95145.00;5033612;28;1182;-70
2023/02/24 00:36:58;;;;;;;;;;;;;;;24.45;33.55;95136.69;5034179;28;1141;-72
2023/02/24 00:39:32;;;;;;;;;;;;;;;24.59;33.14;95136.47;5024308;28;1182;-73
2023/02/24 00:42:03;;;;;;;;;;;;;;;24.65;32.99;95135.59;5032993;28;1465;-73
2023/02/24 00:44:28;;;;;;;;;;;;;;;24.67;32.99;95133.47;5033926;28;1404;-73
2023/02/24 00:46:53;;;;;;;;;;;;;;;24.64;33.12;95131.25;5033349;28;1261;-73
2023/02/24 00:49:19;;;;;;;;;;;;;;;24.67;33.53;95125.44;5032560;28;1965;-73
2023/02/24 00:51:46;;;;;;;;;;;;;;;24.70;33.14;95130.34;5023762;28;1269;-74
2023/02/24 00:54:15;;;;;;;;;;;;;;;24.67;33.30;95128.13;5031804;28;1228;-73
2023/02/24 00:56:44;;;;;;;;;;;;;;;24.56;33.13;95128.88;5032108;28;1444;-72
2023/02/24 00:59:10;;;;;;;;;;;;;;;24.42;33.19;95125.56;5031346;28;1279;-71
2023/02/24 01:01:36;;;;;;;;;;;;;;;24.43;33.66;95120.00;5028033;28;1405;-73
2023/02/24 01:04:12;;;;;;;;;;;;;;;24.46;33.76;95119.53;5027706;28;1280;-74
2023/02/24 01:06:39;;;;;;;;;;;;;;;24.51;33.74;95115.38;5032690;28;1496;-73
2023/02/24 01:09:07;;;;;;;;;;;;;;;24.53;33.70;95119.44;5031058;28;1910;-73
2023/02/24 01:14:18;;;;;;;;;;;;;;;24.53;33.77;95113.25;5017189;28;1231;-74
2023/02/24 01:16:49;;;;;;;;;;;;;;;24.42;33.80;95112.97;5031786;28;1314;-73
2023/02/24 01:19:14;;;;;;;;;;;;;;;24.49;33.90;95107.53;5028831;28;1194;-74
2023/02/24 01:21:40;;;;;;;;;;;;;;;24.50;34.13;95111.84;5031183;28;1521;-74
2023/02/24 01:24:05;;;;;;;;;;;;;;;24.58;33.87;95105.34;5024358;28;1306;-73
2023/02/24 01:26:30;;;;;;;;;;;;;;;24.56;34.09;95102.06;5028522;28;1252;-74
2023/02/24 01:28:56;;;;;;;;;;;;;;;24.57;34.24;95109.09;5030845;28;1964;-74
2023/02/24 01:31:22;;;;;;;;;;;;;;;24.59;34.33;95096.25;5032870;28;1107;-74
2023/02/24 01:33:48;;;;;;;;;;;;;;;24.56;34.48;95096.72;5032047;28;1358;-74
2023/02/24 01:36:14;;;;;;;;;;;;;;;24.59;34.03;95090.88;5022908;28;1240;-72
2023/02/24 01:38:41;;;;;;;;;;;;;;;24.51;34.10;95085.88;5032668;28;1279;-74
2023/02/24 01:41:07;;;;;;;;;;;;;;;24.47;34.21;95085.47;5032936;28;1353;-73
2023/02/24 01:43:33;;;;;;;;;;;;;;;24.46;34.34;95092.72;5032033;28;1484;-74
2023/02/24 01:45:58;;;;;;;;;;;;;;;24.39;34.47;95091.97;5032997;28;1468;-73
2023/02/24 01:48:24;;;;;;;;;;;;;;;24.43;34.21;95095.03;5023017;28;1910;-73
2023/02/24 01:50:50;;;;;;;;;;;;;;;24.43;34.45;95092.38;5032304;28;1227;-73
2023/02/24 01:53:16;;;;;;;;;;;;;;;24.42;34.57;95086.16;5033250;28;1409;-74
2023/02/24 01:55:45;;;;;;;;;;;;;;;24.45;34.56;95088.41;5031589;28;1156;-73
2023/02/24 01:58:14;;;;;;;;;;;;;;;24.46;34.24;95089.22;5026899;28;1183;-74
2023/02/24 02:00:43;;;;;;;;;;;;;;;24.49;34.54;95085.28;5024904;28;1283;-73
2023/02/24 02:03:15;;;;;;;;;;;;;;;24.50;35.09;95087.72;5031586;28;1371;-74
2023/02/24 02:05:41;;;;;;;;;;;;;;;24.52;34.48;95085.63;5030378;28;1280;-74
2023/02/24 02:08:08;;;;;;;;;;;;;;;24.49;34.45;95085.28;5021163;28;1251;-73
2023/02/24 02:10:33;;;;;;;;;;;;;;;24.47;34.56;95088.16;5019308;28;1906;-73
2023/02/24 02:12:59;;;;;;;;;;;;;;;24.42;34.34;95080.78;5032380;28;1234;-73
2023/02/24 02:15:25;;;;;;;;;;;;;;;24.43;34.82;95077.09;5032631;28;1083;-73
2023/02/24 02:18:06;;;;;;;;;;;;;;;24.43;34.70;95081.63;5030676;28;1184;-73
2023/02/24 02:20:46;;;;;;;;;;;;;;;24.23;34.75;95049.72;5030856;28;1198;-73
2023/02/24 02:23:41;;;;;;;;;;;;;;;24.42;34.67;95080.78;5016563;28;1394;-73
2023/02/24 02:26:27;;;;;;;;;;;;;;;24.38;34.99;95079.59;5030925;28;1138;-73
2023/02/24 02:29:04;;;;;;;;;;;;;;;24.38;34.78;95084.97;5031289;28;1957;-74
2023/02/24 02:31:35;;;;;;;;;;;;;;;24.36;34.94;95087.06;5032790;28;1111;-73
2023/02/24 02:34:19;;;;;;;;;;;;;;;24.34;34.96;95089.16;5023318;28;1410;-73
2023/02/24 02:37:04;;;;;;;;;;;;;;;24.29;35.14;95088.19;5019287;28;1171;-73
2023/02/24 02:39:42;;;;;;;;;;;;;;;24.26;35.02;95086.78;5031667;28;1306;-73
2023/02/24 02:42:13;;;;;;;;;;;;;;;24.29;35.07;95080.97;5029767;28;1268;-73
2023/02/24 02:44:58;;;;;;;;;;;;;;;24.27;35.03;95077.69;5022876;28;1393;-73
2023/02/24 02:47:26;;;;;;;;;;;;;;;24.30;35.06;95082.59;5012696;28;1280;-73
2023/02/24 02:49:59;;;;;;;;;;;;;;;24.30;35.00;95077.22;5031425;28;1914;-73
2023/02/24 02:52:30;;;;;;;;;;;;;;;24.30;34.97;95071.88;5030728;28;1304;-73
2023/02/24 02:55:09;;;;;;;;;;;;;;;24.32;34.95;95075.16;5027641;28;1285;-67
2023/02/24 02:57:37;;;;;;;;;;;;;;;24.34;34.84;95072.25;5026227;28;1515;-67
2023/02/24 03:00:09;;;;;;;;;;;;;;;24.35;35.07;95069.31;5030078;28;1778;-72
2023/02/24 03:02:38;;;;;;;;;;;;;;;24.31;35.33;95068.16;5032440;28;1365;-71
2023/02/24 03:05:08;;;;;;;;;;;;;;;24.32;35.21;95064.44;5029814;28;1068;-72
2023/02/24 03:07:39;;;;;;;;;;;;;;;24.31;35.30;95061.97;5019003;28;1190;-72
2023/02/24 03:10:09;;;;;;;;;;;;;;;24.33;35.44;95066.06;5030527;28;1910;-72
2023/02/24 03:12:38;;;;;;;;;;;;;;;24.33;35.29;95055.31;5022827;28;1250;-72
2023/02/24 03:15:06;;;;;;;;;;;;;;;24.33;35.59;95055.31;5031369;28;1476;-71
2023/02/24 03:17:34;;;;;;;;;;;;;;;24.41;35.44;95056.88;5027322;28;1354;-72
2023/02/24 03:20:14;;;;;;;;;;;;;;;24.38;35.13;95058.16;5027004;28;1282;-72
2023/02/24 03:22:51;;;;;;;;;;;;;;;24.35;35.52;95061.28;5033074;28;1241;-69
2023/02/24 03:25:22;;;;;;;;;;;;;;;24.33;35.80;95071.41;5034143;28;1476;-69
2023/02/24 03:27:50;;;;;;;;;;;;;;;24.37;35.68;95074.47;5030860;28;1103;-70
2023/02/24 03:30:20;;;;;;;;;;;;;;;24.37;35.44;95075.28;5021082;28;1911;-69
2023/02/24 03:32:54;;;;;;;;;;;;;;;24.37;35.84;95080.66;5031303;28;1131;-70
2023/02/24 03:35:29;;;;;;;;;;;;;;;24.37;35.79;95067.25;5031655;28;1041;-70
2023/02/24 03:37:58;;;;;;;;;;;;;;;24.40;35.67;95077.50;5030888;28;1195;-71
2023/02/24 03:40:28;;;;;;;;;;;;;;;24.43;35.34;95070.91;5026540;28;1425;-71
2023/02/24 03:42:56;;;;;;;;;;;;;;;24.43;35.53;95071.72;5025123;28;1266;-71
2023/02/24 03:45:22;;;;;;;;;;;;;;;24.45;35.44;95072.31;5029460;28;1192;-71
2023/02/24 03:47:49;;;;;;;;;;;;;;;24.42;35.41;95075.44;5030661;28;1412;-71
2023/02/24 03:50:16;;;;;;;;;;;;;;;24.40;35.58;95066.78;5031268;28;1973;-71
2023/02/24 03:52:41;;;;;;;;;;;;;;;24.38;35.69;95068.88;5021822;28;1404;-70
2023/02/24 03:55:15;;;;;;;;;;;;;;;24.39;35.60;95051.75;5030959;28;1472;-70
2023/02/24 03:57:59;;;;;;;;;;;;;;;24.42;35.40;95064.69;5028192;28;1194;-71
2023/02/24 04:00:33;;;;;;;;;;;;;;;24.44;35.48;95067.97;5031381;28;1405;-70
2023/02/24 04:03:24;;;;;;;;;;;;;;;22.64;29.53;95066.34;5016436;28;1358;-69
2023/02/24 04:06:06;;;;;;;;;;;;;;;22.62;33.37;95073.75;5021450;28;1425;-71
2023/02/24 04:08:37;;;;;;;;;;;;;;;23.20;33.64;95062.00;5035497;28;1961;-73
2023/02/24 04:11:12;;;;;;;;;;;;;;;22.23;28.82;95053.47;5036237;28;892;-69
2023/02/24 04:13:37;;;;;;;;;;;;;;;21.32;29.09;95059.72;5035927;28;1311;-69
2023/02/24 04:16:15;;;;;;;;;;;;;;;20.75;30.18;95059.38;5026358;28;1389;-69
2023/02/24 04:18:45;;;;;;;;;;;;;;;20.39;29.96;95059.72;5038214;28;1308;-69
2023/02/24 04:21:10;;;;;;;;;;;;;;;20.14;30.24;95057.63;5032854;28;1380;-69
2023/02/24 04:23:42;;;;;;;;;;;;;;;19.71;30.32;95057.91;5035860;28;1299;-69
2023/02/24 04:26:08;;;;;;;;;;;;;;;19.69;31.06;95062.59;5029522;28;1338;-67
2023/02/24 04:28:34;;;;;;;;;;;;;;;19.91;30.27;95057.16;5030720;28;1902;-67
2023/02/24 04:31:04;;;;;;;;;;;;;;;20.13;30.37;95052.50;5036159;28;1483;-69
2023/02/24 04:33:30;;;;;;;;;;;;;;;19.66;30.60;95055.00;5034765;28;1370;-70
2023/02/24 04:35:55;;;;;;;;;;;;;;;19.41;30.97;95046.69;5036328;28;1560;-70
2023/02/24 04:38:20;;;;;;;;;;;;;;;19.51;30.86;95047.13;5024564;28;1199;-70
2023/02/24 04:40:48;;;;;;;;;;;;;;;19.65;30.88;95055.19;5034337;28;1258;-75
2023/02/24 04:43:14;;;;;;;;;;;;;;;20.41;30.85;95053.16;5046145;28;1405;-71
2023/02/24 04:45:39;;;;;;;;;;;;;;;20.79;29.75;95041.94;5033090;28;1383;-70
2023/02/24 04:48:11;;;;;;;;;;;;;;;21.19;30.57;95043.75;5030643;28;1349;-74
2023/02/24 04:50:37;;;;;;;;;;;;;;;21.58;30.47;95039.38;5026722;28;1965;-72
2023/02/24 04:53:08;;;;;;;;;;;;;;;21.94;30.86;95038.78;5032975;28;1269;-70
2023/02/24 04:55:41;;;;;;;;;;;;;;;22.18;31.11;95032.72;5031847;28;1299;-71
2023/02/24 04:58:10;;;;;;;;;;;;;;;22.35;30.88;95029.53;5031973;28;1223;-71
2023/02/24 05:00:38;;;;;;;;;;;;;;;22.42;31.19;95027.63;5022189;28;1276;-71
2023/02/24 05:03:04;;;;;;;;;;;;;;;22.48;31.28;95024.09;5030237;28;1513;-71
2023/02/24 05:05:32;;;;;;;;;;;;;;;22.51;31.14;95020.97;5031567;28;1286;-70
2023/02/24 05:08:02;;;;;;;;;;;;;;;22.55;31.32;95016.84;5032313;28;1206;-71
2023/02/24 05:10:29;;;;;;;;;;;;;;;22.59;31.29;95022.56;5032978;28;1910;-72
2023/02/24 05:12:57;;;;;;;;;;;;;;;22.61;31.17;95020.50;5019705;28;1330;-72
2023/02/24 05:15:29;;;;;;;;;;;;;;;22.62;31.29;95022.94;5030367;28;1358;-72
2023/02/24 05:17:55;;;;;;;;;;;;;;;22.66;31.19;95024.16;5032108;28;1372;-72
2023/02/24 05:23:05;;;;;;;;;;;;;;;22.72;31.50;95027.81;5005350;28;1122;-70
2023/02/24 05:25:36;;;;;;;;;;;;;;;22.74;31.23;95024.91;5014653;28;1065;-71
2023/02/24 05:28:02;;;;;;;;;;;;;;;22.75;31.19;95029.25;5014776;28;869;-71
2023/02/24 05:30:28;;;;;;;;;;;;;;;22.78;31.24;95039.50;5018306;28;1969;-71
2023/02/24 05:32:55;;;;;;;;;;;;;;;22.81;31.23;95039.88;5034542;28;934;-71
2023/02/24 05:35:20;;;;;;;;;;;;;;;22.84;31.19;95035.94;5024647;28;1086;-71
2023/02/24 05:37:45;;;;;;;;;;;;;;;22.84;31.35;95035.94;5033476;28;1164;-71
2023/02/24 05:40:12;;;;;;;;;;;;;;;22.86;31.48;95039.22;5034512;28;900;-71
2023/02/24 05:42:37;;;;;;;;;;;;;;;22.87;31.10;95035.50;5034503;28;821;-71
2023/02/24 05:45:04;;;;;;;;;;;;;;;22.89;31.34;95038.78;5031320;28;878;-71
2023/02/24 05:47:29;;;;;;;;;;;;;;;22.90;31.29;95040.41;5027129;28;1567;-71
2023/02/24 05:49:57;;;;;;;;;;;;;;;22.91;31.25;95050.09;5034498;28;1973;-71
2023/02/24 05:52:23;;;;;;;;;;;;;;;22.92;31.16;95046.38;5034256;28;919;-71
2023/02/24 05:54:48;;;;;;;;;;;;;;;22.97;31.21;95041.22;5034191;28;793;-70
2023/02/24 05:57:19;;;;;;;;;;;;;;;22.96;31.07;95050.28;5024243;28;1076;-71
2023/02/24 05:59:47;;;;;;;;;;;;;;;22.96;31.08;95044.91;5033575;28;1278;-71
2023/02/24 06:02:13;;;;;;;;;;;;;;;22.98;31.26;95052.75;5032567;28;1439;-71
2023/02/24 06:04:49;;;;;;;;;;;;;;;22.99;31.07;95057.03;5033992;28;797;-72
2023/02/24 06:07:17;;;;;;;;;;;;;;;23.02;31.02;95048.56;5033963;28;879;-71
2023/02/24 06:09:43;;;;;;;;;;;;;;;23.02;31.18;95045.91;5024275;28;1914;-71
2023/02/24 06:12:09;;;;;;;;;;;;;;;23.04;31.31;95055.34;5034220;28;872;-71
2023/02/24 06:14:34;;;;;;;;;;;;;;;23.05;31.06;95048.97;5032603;28;1180;-71
2023/02/24 06:17:03;;;;;;;;;;;;;;;23.04;31.23;95055.34;5033901;28;904;-70
2023/02/24 06:19:32;;;;;;;;;;;;;;;23.05;31.10;95059.69;5029142;28;1218;-71
2023/02/24 06:22:01;;;;;;;;;;;;;;;23.07;30.92;95062.94;5029052;28;964;-70
2023/02/24 06:24:27;;;;;;;;;;;;;;;23.08;31.03;95067.25;5033820;28;967;-70
2023/02/24 06:26:55;;;;;;;;;;;;;;;23.08;31.16;95064.59;5034019;28;817;-70
2023/02/24 06:29:28;;;;;;;;;;;;;;;23.11;30.96;95068.69;5033286;28;1969;-70
2023/02/24 06:31:53;;;;;;;;;;;;;;;23.11;31.02;95053.44;5023779;28;1122;-70
2023/02/24 06:34:18;;;;;;;;;;;;;;;23.12;31.06;95056.94;5032162;28;1488;-71
2023/02/24 06:36:45;;;;;;;;;;;;;;;23.14;31.10;95060.22;5033455;28;880;-70
2023/02/24 06:39:13;;;;;;;;;;;;;;;23.18;30.98;95063.25;5033478;28;833;-70
2023/02/24 06:41:38;;;;;;;;;;;;;;;23.17;30.93;95051.75;5033303;28;859;-70
2023/02/24 06:44:03;;;;;;;;;;;;;;;23.16;30.78;95054.63;5023674;28;1031;-70
2023/02/24 06:46:29;;;;;;;;;;;;;;;23.21;30.79;95052.94;5033426;28;844;-71
2023/02/24 06:48:56;;;;;;;;;;;;;;;23.21;30.89;95060.13;5032949;28;1975;-71
2023/02/24 06:51:22;;;;;;;;;;;;;;;23.24;30.93;95051.66;5031885;28;1211;-71
2023/02/24 06:53:49;;;;;;;;;;;;;;;23.21;30.92;95052.94;5026782;28;1193;-71
2023/02/24 06:56:18;;;;;;;;;;;;;;;23.24;30.80;95046.31;5030829;28;1066;-71
2023/02/24 06:58:45;;;;;;;;;;;;;;;23.23;30.81;95044.69;5033536;28;915;-71
2023/02/24 07:01:13;;;;;;;;;;;;;;;23.23;30.91;95042.81;5033262;28;940;-71
2023/02/24 07:03:38;;;;;;;;;;;;;;;23.25;30.66;95035.41;5033056;28;1197;-71
2023/02/24 07:06:39;;;;;;;;;;;;;;;23.28;30.87;95047.50;5023370;28;1151;-71
2023/02/24 07:08:57;;;;;;;;;;;;;;;23.30;30.70;95040.06;5030925;28;1961;-71
2023/02/24 07:11:22;;;;;;;;;;;;;;;23.31;30.80;95031.84;5033128;28;809;-71
2023/02/24 07:13:48;;;;;;;;;;;;;;;23.27;30.82;95027.13;5033181;28;919;-70
2023/02/24 07:16:15;;;;;;;;;;;;;;;23.28;30.81;95026.09;5028283;28;1146;-71
2023/02/24 07:18:41;;;;;;;;;;;;;;;23.29;30.83;95025.88;5027844;28;1132;-71
2023/02/24 07:21:11;;;;;;;;;;;;;;;23.33;30.51;95026.25;5033066;28;853;-71
2023/02/24 07:23:40;;;;;;;;;;;;;;;23.36;30.66;95028.47;5033029;28;916;-71
2023/02/24 07:26:10;;;;;;;;;;;;;;;23.34;30.73;95027.91;5032804;28;805;-71
2023/02/24 07:28:38;;;;;;;;;;;;;;;23.39;30.68;95021.84;5022988;28;1898;-70
2023/02/24 07:31:07;;;;;;;;;;;;;;;23.39;30.50;95016.50;5031761;28;1474;-71
2023/02/24 07:33:33;;;;;;;;;;;;;;;23.41;30.50;95025.13;5032956;28;833;-71
2023/02/24 07:35:58;;;;;;;;;;;;;;;23.40;30.67;95015.47;5032719;28;824;-71
2023/02/24 07:38:24;;;;;;;;;;;;;;;23.43;30.58;95017.72;5032860;28;813;-71
2023/02/24 11:58:44;;;;;;;;;;;;;;;22.93;32.45;94751.06;5089328;27;1208;-69
2023/02/24 12:01:14;;;;;;;;;;;;;;;23.05;32.13;94754.66;5070418;28;1137;-70
2023/02/24 12:03:49;;;;;;;;;;;;;;;23.11;31.82;94744.91;5059978;28;1138;-72
2023/02/24 12:06:35;;;;;;;;;;;;;;;23.15;31.78;94742.59;5068610;28;1179;-69
2023/02/24 12:09:08;;;;;;;;;;;;;;;23.21;31.63;94733.63;5062538;28;1296;-69
2023/02/24 12:11:42;;;;;;;;;;;;;;;23.25;31.66;94724.09;5069803;28;817;-71
2023/02/24 12:14:08;;;;;;;;;;;;;;;23.28;31.36;94712.94;5065615;28;1041;-71
2023/02/24 12:16:36;;;;;;;;;;;;;;;23.30;31.40;94718.88;5063929;28;1910;-71
2023/02/24 12:19:11;;;;;;;;;;;;;;;23.28;31.37;94719.13;5069495;28;1306;-72
2023/02/24 12:21:42;;;;;;;;;;;;;;;23.23;31.29;94702.13;5085074;28;1306;-72
2023/02/24 12:24:11;;;;;;;;;;;;;;;23.19;31.40;94706.28;5069494;28;943;-72
2023/02/24 12:26:50;;;;;;;;;;;;;;;23.18;31.25;94699.31;5059563;28;1231;-72
2023/02/24 12:29:28;;;;;;;;;;;;;;;23.17;31.13;94697.66;5084987;28;1451;-72
2023/02/24 12:32:09;;;;;;;;;;;;;;;23.17;31.10;94692.31;5069377;28;932;-70
2023/02/24 12:34:57;;;;;;;;;;;;;;;23.17;31.18;94684.28;5067964;28;1382;-70
2023/02/24 12:37:41;;;;;;;;;;;;;;;23.17;31.22;94684.28;5063263;28;1969;-69
2023/02/24 12:40:10;;;;;;;;;;;;;;;23.16;31.20;94677.31;5084521;28;1327;-70
2023/02/24 12:42:41;;;;;;;;;;;;;;;23.15;31.04;94679.16;5069109;28;805;-71
2023/02/24 12:45:22;;;;;;;;;;;;;;;23.16;31.26;94678.13;5084635;28;1323;-71
2023/02/24 12:47:57;;;;;;;;;;;;;;;23.16;31.04;94685.34;5068834;28;1181;-70
2023/02/24 12:50:22;;;;;;;;;;;;;;;23.17;31.13;94686.94;5057439;28;1224;-70
2023/02/24 12:53:22;;;;;;;;;;;;;;;23.19;31.13;94690.22;5068777;28;887;-70
2023/02/24 12:56:03;;;;;;;;;;;;;;;23.24;30.96;94693.84;5030057;28;1462;-71
2023/02/24 12:58:34;;;;;;;;;;;;;;;23.28;31.10;94686.16;5059331;28;1374;-71
2023/02/24 13:01:08;;;;;;;;;;;;;;;23.33;30.81;94675.59;5045561;28;1030;-70
2023/02/24 13:03:43;;;;;;;;;;;;;;;23.34;30.90;94693.31;5054097;28;1212;-70
2023/02/24 13:06:30;;;;;;;;;;;;;;;23.34;30.78;94683.41;5055664;28;912;-71
2023/02/24 13:09:01;;;;;;;;;;;;;;;23.35;30.84;94676.19;5034393;28;1307;-71
2023/02/24 13:11:39;;;;;;;;;;;;;;;23.37;30.77;94676.78;5049016;28;1209;-71
2023/02/24 13:14:20;;;;;;;;;;;;;;;23.35;30.83;94668.97;5055075;28;1018;-71
2023/02/24 13:16:45;;;;;;;;;;;;;;;23.37;30.81;94671.41;5055288;28;1964;-70
2023/02/24 13:19:20;;;;;;;;;;;;;;;23.35;30.85;94668.97;5055205;28;889;-71
2023/02/24 13:22:04;;;;;;;;;;;;;;;23.35;30.53;94663.59;5055268;28;876;-71
2023/02/24 13:24:29;;;;;;;;;;;;;;;23.37;30.61;94662.56;5043800;28;1390;-71
2023/02/24 13:29:41;;;;;;;;;;;;;;;23.37;30.76;94654.53;5291519;22;2084;-71
2023/02/24 13:32:22;;;;;;;;;;;;;;;23.35;30.45;94649.41;5095873;28;829;-70
2023/02/24 13:34:50;;;;;;;;;;;;;;;23.37;30.64;94652.69;5079347;22;3869;-69
2023/02/24 13:37:24;;;;;;;;;;;;;;;23.38;30.64;94646.28;5036914;28;1977;-70
2023/02/24 13:39:50;;;;;;;;;;;;;;;23.36;30.59;94648.34;5037110;28;1163;-69
2023/02/24 13:42:26;;;;;;;;;;;;;;;23.39;30.74;94650.56;5054903;28;794;-70
2023/02/24 13:47:53;;;;;;;;;;;;;;;23.37;30.64;94641.97;5044145;28;1982;-70
2023/02/24 13:50:26;;;;;;;;;;;;;;;23.37;30.41;94639.31;4983221;28;1438;-70
2023/02/24 13:52:51;;;;;;;;;;;;;;;23.38;30.34;94653.50;5053805;28;809;-70
2023/02/24 13:55:19;;;;;;;;;;;;;;;23.38;30.60;94659.66;5492727;22;3650;-69
2023/02/24 13:57:51;;;;;;;;;;;;;;;23.37;30.73;94660.72;5064855;28;1902;-71
2023/02/24 14:00:20;;;;;;;;;;;;;;;23.38;30.65;94653.50;5084762;22;2203;-68
2023/02/24 14:02:45;;;;;;;;;;;;;;;23.36;30.64;94648.34;5054366;28;895;-68
2023/02/24 14:05:18;;;;;;;;;;;;;;;23.37;30.62;94641.13;5054436;28;864;-68
2023/02/24 14:07:47;;;;;;;;;;;;;;;23.36;30.58;94640.31;5048558;28;1215;-69
2023/02/24 14:10:17;;;;;;;;;;;;;;;23.37;30.48;94633.09;5048319;28;961;-68
2023/02/24 14:12:44;;;;;;;;;;;;;;;23.36;30.58;94637.66;5052541;28;1375;-68
2023/02/24 14:15:11;;;;;;;;;;;;;;;23.37;30.54;94633.09;5054182;28;862;-68
2023/02/24 14:17:36;;;;;;;;;;;;;;;23.37;30.70;94638.47;5053906;28;1977;-68
2023/02/24 14:20:08;;;;;;;;;;;;;;;23.36;30.61;94624.25;5043176;28;1448;-69
2023/02/24 14:22:34;;;;;;;;;;;;;;;23.35;30.68;94634.16;5054006;28;870;-68
2023/02/24 14:25:03;;;;;;;;;;;;;;;23.36;30.58;94634.97;5052656;28;1222;-68
2023/02/24 14:27:28;;;;;;;;;;;;;;;23.35;30.55;94644.88;5053905;28;869;-67
2023/02/24 14:29:54;;;;;;;;;;;;;;;23.35;30.51;94644.06;5053795;28;822;-68
2023/02/24 14:32:21;;;;;;;;;;;;;;;23.36;30.46;94640.31;5044016;28;1112;-68
2023/02/24 14:34:46;;;;;;;;;;;;;;;23.35;30.47;94641.38;5052426;28;1488;-68
2023/02/24 14:37:16;;;;;;;;;;;;;;;23.35;30.35;94644.06;5053475;28;1902;-68
2023/02/24 14:39:48;;;;;;;;;;;;;;;23.37;30.46;94638.47;5051756;28;1469;-68
2023/02/24 14:42:14;;;;;;;;;;;;;;;23.34;30.45;94635.22;5047536;28;1619;-68
2023/02/24 14:44:41;;;;;;;;;;;;;;;23.35;30.55;94628.00;5047326;28;1235;-69
2023/02/24 14:47:09;;;;;;;;;;;;;;;23.35;30.41;94638.72;5053762;28;881;-69
2023/02/24 14:49:35;;;;;;;;;;;;;;;23.35;30.27;94636.84;5053581;28;953;-69
2023/02/24 14:52:26;;;;;;;;;;;;;;;23.35;30.48;94638.72;5053673;28;860;-69
2023/02/24 14:54:54;;;;;;;;;;;;;;;23.34;30.57;94634.41;5020472;28;1121;-68
2023/02/24 14:57:23;;;;;;;;;;;;;;;23.34;30.27;94632.53;5053281;28;1894;-69
2023/02/24 14:59:50;;;;;;;;;;;;;;;23.34;30.53;94640.56;5046761;28;1281;-69
2023/02/24 15:02:19;;;;;;;;;;;;;;;23.34;30.53;94643.25;5033468;28;924;-69
2023/02/24 15:04:45;;;;;;;;;;;;;;;23.35;30.48;94641.38;5028819;28;959;-69
2023/02/24 15:07:16;;;;;;;;;;;;;;;23.35;30.33;94641.38;5028351;28;1122;-69
2023/02/24 15:09:43;;;;;;;;;;;;;;;23.34;30.34;94642.44;5033341;28;944;-68
2023/02/24 15:12:28;;;;;;;;;;;;;;;23.34;30.56;94637.91;5031979;28;1195;-69
2023/02/24 15:14:59;;;;;;;;;;;;;;;23.34;30.48;94642.44;5022518;28;1256;-68
2023/02/24 15:17:25;;;;;;;;;;;;;;;23.34;30.32;94645.13;5023585;28;1963;-69
2023/02/24 15:19:53;;;;;;;;;;;;;;;23.33;30.51;94641.59;5033169;28;924;-69
2023/02/24 15:22:25;;;;;;;;;;;;;;;23.33;30.41;94633.56;5031611;28;1579;-69
2023/02/24 15:24:55;;;;;;;;;;;;;;;23.34;30.21;94639.75;5032963;28;798;-67
2023/02/24 15:27:20;;;;;;;;;;;;;;;23.34;30.49;94635.22;5028391;28;977;-69
2023/02/24 15:29:56;;;;;;;;;;;;;;;23.33;30.48;94630.09;5027642;28;1242;-69
2023/02/24 15:32:24;;;;;;;;;;;;;;;23.22;30.48;94625.53;5013587;28;849;-69
2023/02/24 15:34:49;;;;;;;;;;;;;;;23.24;30.73;94628.81;5013113;28;882;-68
2023/02/24 15:37:19;;;;;;;;;;;;;;;23.29;30.53;94628.94;5027388;28;1902;-67
2023/02/24 15:39:44;;;;;;;;;;;;;;;23.25;30.89;94630.44;5002091;28;1364;-67
2023/02/24 15:42:27;;;;;;;;;;;;;;;23.29;30.51;94629.75;5013018;28;806;-67
2023/02/24 15:44:55;;;;;;;;;;;;;;;23.31;30.64;94624.97;5027441;28;1446;-67
2023/02/24 15:47:22;;;;;;;;;;;;;;;23.33;30.68;94622.06;5031536;28;1452;-67
2023/02/24 15:49:48;;;;;;;;;;;;;;;23.34;30.59;94618.34;5032298;28;873;-69
2023/02/24 15:52:14;;;;;;;;;;;;;;;23.34;30.57;94621.03;5023470;28;1028;-67
2023/02/24 15:54:42;;;;;;;;;;;;;;;23.32;30.62;94621.25;5047523;28;1476;-67
2023/02/24 15:57:11;;;;;;;;;;;;;;;23.32;30.47;94615.09;5047462;28;1955;-67
2023/02/24 15:59:39;;;;;;;;;;;;;;;23.33;30.32;94611.34;5031144;28;1324;-67
2023/02/24 16:02:10;;;;;;;;;;;;;;;23.33;30.56;94606.00;5023118;28;1080;-67
2023/02/24 16:04:36;;;;;;;;;;;;;;;23.32;30.45;94610.53;5030362;28;1398;-67
2023/02/24 16:07:02;;;;;;;;;;;;;;;23.32;30.52;94607.88;5032493;28;822;-67
2023/02/24 16:09:27;;;;;;;;;;;;;;;23.33;30.50;94611.34;5032781;28;881;-67
2023/02/24 16:11:53;;;;;;;;;;;;;;;23.31;30.42;94611.59;5032462;28;854;-68
2023/02/24 16:14:18;;;;;;;;;;;;;;;23.32;30.29;94610.53;5022813;28;1140;-67
2023/02/24 16:16:44;;;;;;;;;;;;;;;23.30;30.30;94604.59;5032669;28;1969;-67
2023/02/24 16:19:12;;;;;;;;;;;;;;;23.30;30.42;94614.50;5047015;28;1317;-67
2023/02/24 16:21:37;;;;;;;;;;;;;;;23.30;30.41;94606.47;5047223;28;1285;-67
2023/02/24 16:24:02;;;;;;;;;;;;;;;23.31;30.44;94611.59;5028839;28;1040;-68
2023/02/24 16:26:28;;;;;;;;;;;;;;;23.30;30.26;94606.47;5025602;28;1301;-67
2023/02/24 16:28:55;;;;;;;;;;;;;;;23.30;30.42;94612.63;5047213;28;1259;-67
2023/02/24 16:31:21;;;;;;;;;;;;;;;23.29;30.58;94608.34;5030621;28;1457;-68
2023/02/24 16:33:46;;;;;;;;;;;;;;;23.29;30.43;94607.53;5034329;28;873;-68
2023/02/24 16:36:12;;;;;;;;;;;;;;;23.28;30.32;94608.53;5024765;28;1949;-68
2023/02/24 16:38:38;;;;;;;;;;;;;;;23.27;30.48;94607.75;5034067;28;1336;-68
2023/02/24 16:41:04;;;;;;;;;;;;;;;23.28;30.27;94613.91;5035650;28;1332;-68
2023/02/24 16:43:29;;;;;;;;;;;;;;;23.28;30.48;94608.53;5034272;28;1370;-68
2023/02/24 16:46:00;;;;;;;;;;;;;;;23.27;30.44;94615.75;5035564;28;1317;-68
2023/02/24 16:48:26;;;;;;;;;;;;;;;23.27;30.59;94612.28;5024741;28;1505;-67
2023/02/24 16:50:51;;;;;;;;;;;;;;;23.27;30.45;94617.63;5035818;28;802;-68
2023/02/24 16:53:18;;;;;;;;;;;;;;;23.26;30.31;94619.50;5035898;28;869;-68
2023/02/24 16:55:44;;;;;;;;;;;;;;;23.28;30.50;94619.25;5035803;28;826;-68
2023/02/24 16:58:10;;;;;;;;;;;;;;;23.26;30.27;94621.38;5029298;28;1914;-69
2023/02/24 17:00:35;;;;;;;;;;;;;;;23.26;30.27;94610.66;5026297;28;1763;-69
2023/02/24 17:03:03;;;;;;;;;;;;;;;23.26;30.34;94616.00;5033693;28;1550;-68
2023/02/24 17:05:28;;;;;;;;;;;;;;;23.22;30.62;94614.84;5033770;28;1732;-68
2023/02/24 17:07:54;;;;;;;;;;;;;;;23.25;30.41;94611.69;5032520;28;1491;-69
2023/02/24 17:10:20;;;;;;;;;;;;;;;23.29;30.42;94610.19;5023800;28;1755;-69
2023/02/24 17:12:46;;;;;;;;;;;;;;;23.28;30.41;94605.88;5031182;28;1725;-69
2023/02/24 17:15:15;;;;;;;;;;;;;;;23.27;30.45;94610.41;5033139;28;1930;-68
2023/02/24 17:17:41;;;;;;;;;;;;;;;23.27;30.59;94606.94;5031749;28;1976;-68
2023/02/24 17:20:07;;;;;;;;;;;;;;;23.26;30.75;94614.16;5033127;28;1343;-69
2023/02/24 17:22:33;;;;;;;;;;;;;;;23.26;30.50;94602.63;5038284;28;1971;-69
2023/02/24 17:24:58;;;;;;;;;;;;;;;23.25;30.72;94603.66;5033925;28;1285;-68
2023/02/24 17:27:23;;;;;;;;;;;;;;;23.24;30.47;94607.41;5049044;28;1792;-68
2023/02/24 17:29:48;;;;;;;;;;;;;;;23.23;30.56;94603.09;5032409;28;1801;-68
2023/02/24 17:32:14;;;;;;;;;;;;;;;23.24;30.41;94608.19;5030274;28;1464;-69
2023/02/24 17:34:39;;;;;;;;;;;;;;;23.25;30.59;94603.66;5029539;28;1544;-68
2023/02/24 17:37:04;;;;;;;;;;;;;;;23.22;30.76;94607.63;5034741;28;1964;-68
2023/02/24 17:39:30;;;;;;;;;;;;;;;23.24;30.72;94615.44;5032500;28;1284;-69
2023/02/24 17:41:55;;;;;;;;;;;;;;;23.22;30.70;94607.63;5033962;28;1879;-68